sensor_id;sensor_type;location;lat;lon;timestamp;P1;durP1;ratioP1;P2;durP2;ratioP2
78224;SDS011;67498;53.650;10.090;2023-08-21T00:00:44;5.60;;;1.20;;
78224;SDS011;67498;53.650;10.090;2023-08-21T00:03:09;5.50;;;1.50;;
78224;SDS011;67498;53.650;10.090;2023-08-21T00:05:35;5.63;;;1.43;;
78224;SDS011;67498;53.650;10.090;2023-08-21T00:08:00;5.30;;;1.30;;
78224;SDS011;67498;53.650;10.090;2023-08-21T00:10:25;8.23;;;1.53;;
78224;SDS011;67498;53.650;10.090;2023-08-21T00:12:50;5.20;;;1.30;;
78224;SDS011;67498;53.650;10.090;2023-08-21T00:15:16;5.60;;;1.70;;
78224;SDS011;67498;53.650;10.090;2023-08-21T00:17:41;5.27;;;1.80;;
78224;SDS011;67498;53.650;10.090;2023-08-21T00:20:06;5.03;;;1.10;;
78224;SDS011;67498;53.650;10.090;2023-08-21T00:22:34;5.78;;;1.23;;
78224;SDS011;67498;53.650;10.090;2023-08-21T00:25:00;6.45;;;1.30;;
78224;SDS011;67498;53.650;10.090;2023-08-21T00:27:25;4.50;;;0.93;;
78224;SDS011;67498;53.650;10.090;2023-08-21T00:29:50;5.77;;;1.13;;
78224;SDS011;67498;53.650;10.090;2023-08-21T00:32:16;4.57;;;1.23;;
78224;SDS011;67498;53.650;10.090;2023-08-21T00:34:41;3.83;;;1.10;;
78224;SDS011;67498;53.650;10.090;2023-08-21T00:37:06;3.63;;;1.20;;
78224;SDS011;67498;53.650;10.090;2023-08-21T00:39:32;9.80;;;1.23;;
78224;SDS011;67498;53.650;10.090;2023-08-21T00:41:57;2.57;;;0.67;;
78224;SDS011;67498;53.650;10.090;2023-08-21T00:44:22;4.40;;;1.00;;
78224;SDS011;67498;53.650;10.090;2023-08-21T00:46:47;4.87;;;0.87;;
78224;SDS011;67498;53.650;10.090;2023-08-21T00:49:13;5.17;;;0.90;;
78224;SDS011;67498;53.650;10.090;2023-08-21T00:51:38;7.57;;;1.00;;
78224;SDS011;67498;53.650;10.090;2023-08-21T00:54:04;4.40;;;0.77;;
78224;SDS011;67498;53.650;10.090;2023-08-21T00:56:29;3.20;;;0.83;;
78224;SDS011;67498;53.650;10.090;2023-08-21T00:58:56;7.70;;;1.30;;
78224;SDS011;67498;53.650;10.090;2023-08-21T01:01:22;4.00;;;0.98;;
78224;SDS011;67498;53.650;10.090;2023-08-21T01:03:50;8.70;;;1.80;;
78224;SDS011;67498;53.650;10.090;2023-08-21T01:06:16;6.07;;;1.00;;
78224;SDS011;67498;53.650;10.090;2023-08-21T01:11:31;4.30;;;0.80;;
78224;SDS011;67498;53.650;10.090;2023-08-21T01:16:38;5.07;;;1.20;;
78224;SDS011;67498;53.650;10.090;2023-08-21T01:19:06;4.10;;;1.00;;
78224;SDS011;67498;53.650;10.090;2023-08-21T01:21:39;6.40;;;1.52;;
78224;SDS011;67498;53.650;10.090;2023-08-21T01:24:05;4.50;;;1.23;;
78224;SDS011;67498;53.650;10.090;2023-08-21T01:26:30;3.47;;;1.00;;
78224;SDS011;67498;53.650;10.090;2023-08-21T01:28:55;4.87;;;1.10;;
78224;SDS011;67498;53.650;10.090;2023-08-21T01:31:24;6.17;;;1.87;;
78224;SDS011;67498;53.650;10.090;2023-08-21T01:33:53;3.27;;;1.03;;
78224;SDS011;67498;53.650;10.090;2023-08-21T01:36:22;3.60;;;0.90;;
78224;SDS011;67498;53.650;10.090;2023-08-21T01:38:48;4.38;;;1.17;;
78224;SDS011;67498;53.650;10.090;2023-08-21T01:41:13;10.53;;;1.47;;
78224;SDS011;67498;53.650;10.090;2023-08-21T01:43:39;4.20;;;1.43;;
78224;SDS011;67498;53.650;10.090;2023-08-21T01:46:04;3.23;;;0.83;;
78224;SDS011;67498;53.650;10.090;2023-08-21T01:48:29;4.03;;;1.17;;
78224;SDS011;67498;53.650;10.090;2023-08-21T01:50:55;3.75;;;0.95;;
78224;SDS011;67498;53.650;10.090;2023-08-21T01:53:20;4.57;;;1.30;;
78224;SDS011;67498;53.650;10.090;2023-08-21T01:55:45;8.83;;;1.30;;
78224;SDS011;67498;53.650;10.090;2023-08-21T01:58:11;2.73;;;0.80;;
78224;SDS011;67498;53.650;10.090;2023-08-21T02:00:36;3.97;;;1.40;;
78224;SDS011;67498;53.650;10.090;2023-08-21T02:03:01;6.17;;;1.57;;
78224;SDS011;67498;53.650;10.090;2023-08-21T02:05:26;5.17;;;1.47;;
78224;SDS011;67498;53.650;10.090;2023-08-21T02:07:52;6.10;;;1.73;;
78224;SDS011;67498;53.650;10.090;2023-08-21T02:10:17;4.40;;;1.40;;
78224;SDS011;67498;53.650;10.090;2023-08-21T02:12:42;7.13;;;1.50;;
78224;SDS011;67498;53.650;10.090;2023-08-21T02:15:08;9.80;;;1.27;;
78224;SDS011;67498;53.650;10.090;2023-08-21T02:17:35;3.60;;;1.00;;
78224;SDS011;67498;53.650;10.090;2023-08-21T02:20:00;3.97;;;1.00;;
78224;SDS011;67498;53.650;10.090;2023-08-21T02:22:25;6.13;;;0.90;;
78224;SDS011;67498;53.650;10.090;2023-08-21T02:24:51;5.37;;;1.20;;
78224;SDS011;67498;53.650;10.090;2023-08-21T02:27:16;3.57;;;0.87;;
78224;SDS011;67498;53.650;10.090;2023-08-21T02:29:41;9.27;;;1.83;;
78224;SDS011;67498;53.650;10.090;2023-08-21T02:32:06;4.03;;;1.10;;
78224;SDS011;67498;53.650;10.090;2023-08-21T02:34:32;7.47;;;1.77;;
78224;SDS011;67498;53.650;10.090;2023-08-21T02:36:57;3.77;;;1.33;;
78224;SDS011;67498;53.650;10.090;2023-08-21T02:39:23;3.92;;;1.30;;
78224;SDS011;67498;53.650;10.090;2023-08-21T02:41:48;3.73;;;1.10;;
78224;SDS011;67498;53.650;10.090;2023-08-21T02:44:13;5.23;;;1.27;;
78224;SDS011;67498;53.650;10.090;2023-08-21T02:46:39;6.70;;;1.33;;
78224;SDS011;67498;53.650;10.090;2023-08-21T02:49:04;5.00;;;1.45;;
78224;SDS011;67498;53.650;10.090;2023-08-21T02:51:29;5.23;;;1.13;;
78224;SDS011;67498;53.650;10.090;2023-08-21T02:53:55;8.77;;;1.30;;
78224;SDS011;67498;53.650;10.090;2023-08-21T02:56:20;11.00;;;1.67;;
78224;SDS011;67498;53.650;10.090;2023-08-21T02:58:45;4.43;;;1.30;;
78224;SDS011;67498;53.650;10.090;2023-08-21T03:01:10;7.87;;;1.63;;
78224;SDS011;67498;53.650;10.090;2023-08-21T03:03:36;5.37;;;1.37;;
78224;SDS011;67498;53.650;10.090;2023-08-21T03:06:02;9.00;;;1.60;;
78224;SDS011;67498;53.650;10.090;2023-08-21T03:08:27;5.07;;;1.50;;
78224;SDS011;67498;53.650;10.090;2023-08-21T03:10:52;5.77;;;1.97;;
78224;SDS011;67498;53.650;10.090;2023-08-21T03:13:18;5.73;;;1.60;;
78224;SDS011;67498;53.650;10.090;2023-08-21T03:15:43;5.37;;;1.40;;
78224;SDS011;67498;53.650;10.090;2023-08-21T03:18:08;4.27;;;1.43;;
78224;SDS011;67498;53.650;10.090;2023-08-21T03:20:33;9.33;;;3.03;;
78224;SDS011;67498;53.650;10.090;2023-08-21T03:22:59;4.30;;;1.23;;
78224;SDS011;67498;53.650;10.090;2023-08-21T03:25:24;6.55;;;1.67;;
78224;SDS011;67498;53.650;10.090;2023-08-21T03:27:50;7.57;;;1.40;;
78224;SDS011;67498;53.650;10.090;2023-08-21T03:30:15;5.77;;;1.70;;
78224;SDS011;67498;53.650;10.090;2023-08-21T03:32:40;6.33;;;1.73;;
78224;SDS011;67498;53.650;10.090;2023-08-21T03:35:06;7.03;;;1.77;;
78224;SDS011;67498;53.650;10.090;2023-08-21T03:37:31;6.80;;;1.50;;
78224;SDS011;67498;53.650;10.090;2023-08-21T03:39:56;5.17;;;1.63;;
78224;SDS011;67498;53.650;10.090;2023-08-21T03:42:22;4.87;;;1.63;;
78224;SDS011;67498;53.650;10.090;2023-08-21T03:44:47;4.77;;;1.90;;
78224;SDS011;67498;53.650;10.090;2023-08-21T03:47:15;5.30;;;1.85;;
78224;SDS011;67498;53.650;10.090;2023-08-21T03:49:40;4.10;;;1.30;;
78224;SDS011;67498;53.650;10.090;2023-08-21T03:52:05;6.40;;;1.97;;
78224;SDS011;67498;53.650;10.090;2023-08-21T03:54:31;4.90;;;1.80;;
78224;SDS011;67498;53.650;10.090;2023-08-21T03:56:56;5.30;;;2.27;;
78224;SDS011;67498;53.650;10.090;2023-08-21T03:59:21;6.37;;;1.80;;
78224;SDS011;67498;53.650;10.090;2023-08-21T04:01:48;7.55;;;1.90;;
78224;SDS011;67498;53.650;10.090;2023-08-21T04:04:14;6.23;;;1.93;;
78224;SDS011;67498;53.650;10.090;2023-08-21T04:06:39;17.73;;;2.20;;
78224;SDS011;67498;53.650;10.090;2023-08-21T04:09:04;5.60;;;1.47;;
78224;SDS011;67498;53.650;10.090;2023-08-21T04:11:31;5.07;;;1.90;;
78224;SDS011;67498;53.650;10.090;2023-08-21T04:13:57;4.90;;;1.73;;
78224;SDS011;67498;53.650;10.090;2023-08-21T04:16:24;4.88;;;1.73;;
78224;SDS011;67498;53.650;10.090;2023-08-21T04:18:49;10.37;;;2.87;;
78224;SDS011;67498;53.650;10.090;2023-08-21T04:21:14;8.43;;;2.03;;
78224;SDS011;67498;53.650;10.090;2023-08-21T04:23:39;6.23;;;1.50;;
78224;SDS011;67498;53.650;10.090;2023-08-21T04:26:05;6.23;;;1.83;;
78224;SDS011;67498;53.650;10.090;2023-08-21T04:28:31;6.85;;;2.00;;
78224;SDS011;67498;53.650;10.090;2023-08-21T04:30:57;10.63;;;2.07;;
78224;SDS011;67498;53.650;10.090;2023-08-21T04:33:24;8.07;;;1.95;;
78224;SDS011;67498;53.650;10.090;2023-08-21T04:35:50;7.63;;;2.03;;
78224;SDS011;67498;53.650;10.090;2023-08-21T04:38:15;5.33;;;2.30;;
78224;SDS011;67498;53.650;10.090;2023-08-21T04:40:40;5.43;;;1.70;;
78224;SDS011;67498;53.650;10.090;2023-08-21T04:43:06;4.87;;;1.37;;
78224;SDS011;67498;53.650;10.090;2023-08-21T04:45:31;5.57;;;2.07;;
78224;SDS011;67498;53.650;10.090;2023-08-21T04:47:56;7.57;;;2.80;;
78224;SDS011;67498;53.650;10.090;2023-08-21T04:50:21;10.70;;;2.30;;
78224;SDS011;67498;53.650;10.090;2023-08-21T04:52:47;6.23;;;2.20;;
78224;SDS011;67498;53.650;10.090;2023-08-21T04:55:14;4.77;;;1.67;;
78224;SDS011;67498;53.650;10.090;2023-08-21T04:57:39;6.72;;;1.63;;
78224;SDS011;67498;53.650;10.090;2023-08-21T05:00:04;5.43;;;2.00;;
78224;SDS011;67498;53.650;10.090;2023-08-21T05:02:30;9.00;;;2.93;;
78224;SDS011;67498;53.650;10.090;2023-08-21T05:04:55;9.20;;;2.60;;
78224;SDS011;67498;53.650;10.090;2023-08-21T05:07:21;13.70;;;2.13;;
78224;SDS011;67498;53.650;10.090;2023-08-21T05:09:46;10.33;;;3.17;;
78224;SDS011;67498;53.650;10.090;2023-08-21T05:12:11;5.10;;;2.17;;
78224;SDS011;67498;53.650;10.090;2023-08-21T05:14:36;8.20;;;2.60;;
78224;SDS011;67498;53.650;10.090;2023-08-21T05:17:03;9.23;;;2.50;;
78224;SDS011;67498;53.650;10.090;2023-08-21T05:19:28;7.85;;;2.70;;
78224;SDS011;67498;53.650;10.090;2023-08-21T05:21:53;8.07;;;2.67;;
78224;SDS011;67498;53.650;10.090;2023-08-21T05:24:19;7.33;;;2.10;;
78224;SDS011;67498;53.650;10.090;2023-08-21T05:26:44;6.07;;;2.37;;
78224;SDS011;67498;53.650;10.090;2023-08-21T05:29:09;6.60;;;2.30;;
78224;SDS011;67498;53.650;10.090;2023-08-21T05:31:34;13.77;;;3.20;;
78224;SDS011;67498;53.650;10.090;2023-08-21T05:34:00;16.53;;;2.67;;
78224;SDS011;67498;53.650;10.090;2023-08-21T05:36:25;8.87;;;2.50;;
78224;SDS011;67498;53.650;10.090;2023-08-21T05:38:50;8.33;;;2.50;;
78224;SDS011;67498;53.650;10.090;2023-08-21T05:41:16;8.13;;;2.78;;
78224;SDS011;67498;53.650;10.090;2023-08-21T05:43:41;5.87;;;2.17;;
78224;SDS011;67498;53.650;10.090;2023-08-21T05:46:07;8.43;;;2.43;;
78224;SDS011;67498;53.650;10.090;2023-08-21T05:48:32;6.10;;;2.15;;
78224;SDS011;67498;53.650;10.090;2023-08-21T05:50:58;8.77;;;2.73;;
78224;SDS011;67498;53.650;10.090;2023-08-21T05:53:23;10.37;;;2.57;;
78224;SDS011;67498;53.650;10.090;2023-08-21T05:55:48;7.37;;;2.67;;
78224;SDS011;67498;53.650;10.090;2023-08-21T05:58:14;11.47;;;2.67;;
78224;SDS011;67498;53.650;10.090;2023-08-21T06:00:39;13.10;;;2.97;;
78224;SDS011;67498;53.650;10.090;2023-08-21T06:03:04;22.80;;;11.17;;
78224;SDS011;67498;53.650;10.090;2023-08-21T06:05:30;32.27;;;13.60;;
78224;SDS011;67498;53.650;10.090;2023-08-21T06:07:55;11.70;;;5.00;;
78224;SDS011;67498;53.650;10.090;2023-08-21T06:10:21;5.43;;;1.80;;
78224;SDS011;67498;53.650;10.090;2023-08-21T06:12:46;9.53;;;2.03;;
78224;SDS011;67498;53.650;10.090;2023-08-21T06:15:13;9.00;;;1.57;;
78224;SDS011;67498;53.650;10.090;2023-08-21T06:17:38;7.38;;;1.73;;
78224;SDS011;67498;53.650;10.090;2023-08-21T06:20:04;11.13;;;1.97;;
78224;SDS011;67498;53.650;10.090;2023-08-21T06:22:31;9.13;;;1.60;;
78224;SDS011;67498;53.650;10.090;2023-08-21T06:24:56;11.43;;;2.50;;
78224;SDS011;67498;53.650;10.090;2023-08-21T06:27:22;12.40;;;1.60;;
78224;SDS011;67498;53.650;10.090;2023-08-21T06:29:47;4.13;;;0.90;;
78224;SDS011;67498;53.650;10.090;2023-08-21T06:32:12;5.30;;;1.30;;
78224;SDS011;67498;53.650;10.090;2023-08-21T06:34:38;11.50;;;1.77;;
78224;SDS011;67498;53.650;10.090;2023-08-21T06:37:03;15.63;;;1.73;;
78224;SDS011;67498;53.650;10.090;2023-08-21T06:39:28;4.50;;;1.27;;
78224;SDS011;67498;53.650;10.090;2023-08-21T06:41:53;8.33;;;1.17;;
78224;SDS011;67498;53.650;10.090;2023-08-21T06:44:19;9.47;;;0.90;;
78224;SDS011;67498;53.650;10.090;2023-08-21T06:46:45;9.23;;;1.08;;
78224;SDS011;67498;53.650;10.090;2023-08-21T06:49:10;11.50;;;1.47;;
78224;SDS011;67498;53.650;10.090;2023-08-21T06:51:35;4.60;;;1.00;;
78224;SDS011;67498;53.650;10.090;2023-08-21T06:54:01;3.17;;;0.77;;
78224;SDS011;67498;53.650;10.090;2023-08-21T06:56:26;4.10;;;1.08;;
78224;SDS011;67498;53.650;10.090;2023-08-21T06:58:52;3.50;;;1.00;;
78224;SDS011;67498;53.650;10.090;2023-08-21T07:01:17;16.83;;;1.80;;
78224;SDS011;67498;53.650;10.090;2023-08-21T07:03:42;5.83;;;0.90;;
78224;SDS011;67498;53.650;10.090;2023-08-21T07:06:08;5.35;;;1.08;;
78224;SDS011;67498;53.650;10.090;2023-08-21T07:08:33;7.23;;;1.23;;
78224;SDS011;67498;53.650;10.090;2023-08-21T07:11:01;5.00;;;1.10;;
78224;SDS011;67498;53.650;10.090;2023-08-21T07:13:27;7.30;;;0.85;;
78224;SDS011;67498;53.650;10.090;2023-08-21T07:15:53;8.90;;;1.20;;
78224;SDS011;67498;53.650;10.090;2023-08-21T07:18:19;5.13;;;1.13;;
78224;SDS011;67498;53.650;10.090;2023-08-21T07:20:45;13.53;;;1.17;;
78224;SDS011;67498;53.650;10.090;2023-08-21T07:23:10;2.57;;;0.57;;
78224;SDS011;67498;53.650;10.090;2023-08-21T07:25:35;3.50;;;0.70;;
78224;SDS011;67498;53.650;10.090;2023-08-21T07:28:01;5.80;;;1.23;;
78224;SDS011;67498;53.650;10.090;2023-08-21T07:30:27;4.80;;;0.53;;
78224;SDS011;67498;53.650;10.090;2023-08-21T07:32:52;3.00;;;0.47;;
78224;SDS011;67498;53.650;10.090;2023-08-21T07:35:18;5.70;;;1.10;;
78224;SDS011;67498;53.650;10.090;2023-08-21T07:37:43;3.03;;;0.70;;
78224;SDS011;67498;53.650;10.090;2023-08-21T07:40:09;4.72;;;0.70;;
78224;SDS011;67498;53.650;10.090;2023-08-21T07:42:35;6.97;;;0.67;;
78224;SDS011;67498;53.650;10.090;2023-08-21T07:45:00;7.90;;;1.27;;
78224;SDS011;67498;53.650;10.090;2023-08-21T07:47:28;4.47;;;0.70;;
78224;SDS011;67498;53.650;10.090;2023-08-21T07:49:54;5.80;;;0.65;;
78224;SDS011;67498;53.650;10.090;2023-08-21T07:52:20;3.20;;;0.50;;
78224;SDS011;67498;53.650;10.090;2023-08-21T07:54:46;3.87;;;0.50;;
78224;SDS011;67498;53.650;10.090;2023-08-21T07:57:11;3.93;;;0.40;;
78224;SDS011;67498;53.650;10.090;2023-08-21T07:59:37;7.75;;;0.55;;
78224;SDS011;67498;53.650;10.090;2023-08-21T08:02:02;3.30;;;0.50;;
78224;SDS011;67498;53.650;10.090;2023-08-21T08:04:29;2.72;;;0.60;;
78224;SDS011;67498;53.650;10.090;2023-08-21T08:06:54;5.60;;;0.50;;
78224;SDS011;67498;53.650;10.090;2023-08-21T08:09:19;5.27;;;0.80;;
78224;SDS011;67498;53.650;10.090;2023-08-21T08:11:44;3.10;;;0.60;;
78224;SDS011;67498;53.650;10.090;2023-08-21T08:14:10;3.60;;;0.77;;
78224;SDS011;67498;53.650;10.090;2023-08-21T08:16:35;3.93;;;0.60;;
78224;SDS011;67498;53.650;10.090;2023-08-21T08:19:00;4.23;;;0.50;;
78224;SDS011;67498;53.650;10.090;2023-08-21T08:21:26;6.13;;;0.70;;
78224;SDS011;67498;53.650;10.090;2023-08-21T08:23:51;3.35;;;0.50;;
78224;SDS011;67498;53.650;10.090;2023-08-21T08:26:16;4.43;;;0.70;;
78224;SDS011;67498;53.650;10.090;2023-08-21T08:28:42;3.93;;;0.60;;
78224;SDS011;67498;53.650;10.090;2023-08-21T08:31:13;6.23;;;0.70;;
78224;SDS011;67498;53.650;10.090;2023-08-21T08:33:39;2.80;;;0.70;;
78224;SDS011;67498;53.650;10.090;2023-08-21T08:36:04;5.43;;;0.80;;
78224;SDS011;67498;53.650;10.090;2023-08-21T08:38:30;3.30;;;0.70;;
78224;SDS011;67498;53.650;10.090;2023-08-21T08:40:55;2.60;;;0.60;;
78224;SDS011;67498;53.650;10.090;2023-08-21T08:43:21;2.38;;;0.50;;
78224;SDS011;67498;53.650;10.090;2023-08-21T08:45:50;4.30;;;0.63;;
78224;SDS011;67498;53.650;10.090;2023-08-21T08:48:17;1.93;;;0.40;;
78224;SDS011;67498;53.650;10.090;2023-08-21T08:50:45;4.43;;;0.68;;
78224;SDS011;67498;53.650;10.090;2023-08-21T08:53:11;4.25;;;0.50;;
78224;SDS011;67498;53.650;10.090;2023-08-21T08:55:37;1.92;;;0.40;;
78224;SDS011;67498;53.650;10.090;2023-08-21T08:58:02;4.13;;;0.57;;
78224;SDS011;67498;53.650;10.090;2023-08-21T09:00:28;4.57;;;0.80;;
78224;SDS011;67498;53.650;10.090;2023-08-21T09:02:53;2.07;;;0.47;;
78224;SDS011;67498;53.650;10.090;2023-08-21T09:05:20;3.63;;;0.80;;
78224;SDS011;67498;53.650;10.090;2023-08-21T09:07:45;5.67;;;0.40;;
78224;SDS011;67498;53.650;10.090;2023-08-21T09:10:15;2.30;;;0.50;;
78224;SDS011;67498;53.650;10.090;2023-08-21T09:12:40;3.65;;;0.50;;
78224;SDS011;67498;53.650;10.090;2023-08-21T09:15:09;3.40;;;0.60;;
78224;SDS011;67498;53.650;10.090;2023-08-21T09:17:34;4.10;;;0.83;;
78224;SDS011;67498;53.650;10.090;2023-08-21T09:20:03;4.47;;;0.40;;
78224;SDS011;67498;53.650;10.090;2023-08-21T09:22:29;3.13;;;0.60;;
78224;SDS011;67498;53.650;10.090;2023-08-21T09:25:04;4.07;;;0.70;;
78224;SDS011;67498;53.650;10.090;2023-08-21T09:27:32;2.53;;;0.73;;
78224;SDS011;67498;53.650;10.090;2023-08-21T09:29:59;3.53;;;0.60;;
78224;SDS011;67498;53.650;10.090;2023-08-21T09:32:25;2.30;;;0.40;;
78224;SDS011;67498;53.650;10.090;2023-08-21T09:34:50;2.10;;;0.40;;
78224;SDS011;67498;53.650;10.090;2023-08-21T09:37:16;3.33;;;0.63;;
78224;SDS011;67498;53.650;10.090;2023-08-21T09:39:42;2.50;;;0.60;;
78224;SDS011;67498;53.650;10.090;2023-08-21T09:42:08;2.93;;;0.60;;
78224;SDS011;67498;53.650;10.090;2023-08-21T09:44:37;3.90;;;0.98;;
78224;SDS011;67498;53.650;10.090;2023-08-21T09:47:11;2.22;;;0.50;;
78224;SDS011;67498;53.650;10.090;2023-08-21T09:49:37;4.72;;;0.73;;
78224;SDS011;67498;53.650;10.090;2023-08-21T09:52:05;3.40;;;0.60;;
78224;SDS011;67498;53.650;10.090;2023-08-21T09:54:31;4.70;;;0.90;;
78224;SDS011;67498;53.650;10.090;2023-08-21T09:57:00;2.70;;;0.60;;
78224;SDS011;67498;53.650;10.090;2023-08-21T09:59:27;3.50;;;0.40;;
78224;SDS011;67498;53.650;10.090;2023-08-21T10:01:53;5.05;;;0.70;;
78224;SDS011;67498;53.650;10.090;2023-08-21T10:04:20;2.03;;;0.40;;
78224;SDS011;67498;53.650;10.090;2023-08-21T10:06:47;3.23;;;0.57;;
78224;SDS011;67498;53.650;10.090;2023-08-21T10:09:14;4.43;;;0.70;;
78224;SDS011;67498;53.650;10.090;2023-08-21T10:11:40;2.28;;;0.50;;
78224;SDS011;67498;53.650;10.090;2023-08-21T10:14:08;3.80;;;0.77;;
78224;SDS011;67498;53.650;10.090;2023-08-21T10:16:34;2.67;;;0.70;;
78224;SDS011;67498;53.650;10.090;2023-08-21T10:19:02;2.17;;;0.52;;
78224;SDS011;67498;53.650;10.090;2023-08-21T10:21:34;3.47;;;0.75;;
78224;SDS011;67498;53.650;10.090;2023-08-21T10:24:01;2.23;;;0.50;;
78224;SDS011;67498;53.650;10.090;2023-08-21T10:26:26;6.27;;;0.67;;
78224;SDS011;67498;53.650;10.090;2023-08-21T10:28:55;4.35;;;0.50;;
78224;SDS011;67498;53.650;10.090;2023-08-21T10:34:07;2.45;;;0.52;;
78224;SDS011;67498;53.650;10.090;2023-08-21T10:36:36;6.25;;;0.63;;
78224;SDS011;67498;53.650;10.090;2023-08-21T10:39:03;3.28;;;0.60;;
78224;SDS011;67498;53.650;10.090;2023-08-21T10:41:29;2.15;;;0.45;;
78224;SDS011;67498;53.650;10.090;2023-08-21T10:43:55;4.97;;;0.70;;
78224;SDS011;67498;53.650;10.090;2023-08-21T10:46:20;4.87;;;0.57;;
78224;SDS011;67498;53.650;10.090;2023-08-21T10:48:45;6.97;;;0.63;;
78224;SDS011;67498;53.650;10.090;2023-08-21T10:51:11;2.45;;;0.55;;
78224;SDS011;67498;53.650;10.090;2023-08-21T10:53:37;6.10;;;0.63;;
78224;SDS011;67498;53.650;10.090;2023-08-21T10:56:05;4.63;;;0.63;;
78224;SDS011;67498;53.650;10.090;2023-08-21T10:58:34;5.05;;;0.60;;
78224;SDS011;67498;53.650;10.090;2023-08-21T11:01:02;2.75;;;0.52;;
78224;SDS011;67498;53.650;10.090;2023-08-21T11:03:28;2.57;;;0.53;;
78224;SDS011;67498;53.650;10.090;2023-08-21T11:06:03;4.00;;;0.50;;
78224;SDS011;67498;53.650;10.090;2023-08-21T11:08:29;2.42;;;0.52;;
78224;SDS011;67498;53.650;10.090;2023-08-21T11:10:56;4.38;;;0.70;;
78224;SDS011;67498;53.650;10.090;2023-08-21T11:13:25;4.07;;;0.70;;
78224;SDS011;67498;53.650;10.090;2023-08-21T11:16:00;5.47;;;0.68;;
78224;SDS011;67498;53.650;10.090;2023-08-21T11:18:33;5.20;;;0.57;;
78224;SDS011;67498;53.650;10.090;2023-08-21T11:21:07;3.28;;;0.60;;
78224;SDS011;67498;53.650;10.090;2023-08-21T11:23:34;3.50;;;0.60;;
78224;SDS011;67498;53.650;10.090;2023-08-21T11:26:01;1.98;;;0.40;;
78224;SDS011;67498;53.650;10.090;2023-08-21T11:28:28;2.15;;;0.40;;
78224;SDS011;67498;53.650;10.090;2023-08-21T11:30:55;2.60;;;0.50;;
78224;SDS011;67498;53.650;10.090;2023-08-21T11:33:21;3.10;;;0.60;;
78224;SDS011;67498;53.650;10.090;2023-08-21T11:35:46;5.70;;;0.70;;
78224;SDS011;67498;53.650;10.090;2023-08-21T11:38:16;3.55;;;0.60;;
78224;SDS011;67498;53.650;10.090;2023-08-21T11:40:50;3.03;;;0.70;;
78224;SDS011;67498;53.650;10.090;2023-08-21T11:43:35;2.83;;;0.38;;
78224;SDS011;67498;53.650;10.090;2023-08-21T11:46:02;2.70;;;0.60;;
78224;SDS011;67498;53.650;10.090;2023-08-21T11:48:29;3.55;;;0.52;;
78224;SDS011;67498;53.650;10.090;2023-08-21T11:50:54;3.15;;;0.90;;
78224;SDS011;67498;53.650;10.090;2023-08-21T11:53:32;2.97;;;0.50;;
78224;SDS011;67498;53.650;10.090;2023-08-21T11:56:03;3.90;;;0.60;;
78224;SDS011;67498;53.650;10.090;2023-08-21T11:58:37;3.90;;;0.70;;
78224;SDS011;67498;53.650;10.090;2023-08-21T12:01:04;3.17;;;0.60;;
78224;SDS011;67498;53.650;10.090;2023-08-21T12:03:30;5.00;;;0.60;;
78224;SDS011;67498;53.650;10.090;2023-08-21T12:05:56;2.75;;;0.50;;
78224;SDS011;67498;53.650;10.090;2023-08-21T12:08:21;2.40;;;0.50;;
78224;SDS011;67498;53.650;10.090;2023-08-21T12:10:50;1.80;;;0.30;;
78224;SDS011;67498;53.650;10.090;2023-08-21T12:13:17;3.17;;;0.50;;
78224;SDS011;67498;53.650;10.090;2023-08-21T12:15:43;3.60;;;0.55;;
78224;SDS011;67498;53.650;10.090;2023-08-21T12:18:08;2.10;;;0.40;;
78224;SDS011;67498;53.650;10.090;2023-08-21T12:20:34;5.60;;;0.60;;
78224;SDS011;67498;53.650;10.090;2023-08-21T12:22:59;3.28;;;0.60;;
78224;SDS011;67498;53.650;10.090;2023-08-21T12:25:24;4.10;;;0.47;;
78224;SDS011;67498;53.650;10.090;2023-08-21T12:27:49;2.60;;;0.50;;
78224;SDS011;67498;53.650;10.090;2023-08-21T12:30:15;2.63;;;0.50;;
78224;SDS011;67498;53.650;10.090;2023-08-21T12:32:40;3.30;;;0.47;;
78224;SDS011;67498;53.650;10.090;2023-08-21T12:35:05;3.73;;;0.57;;
78224;SDS011;67498;53.650;10.090;2023-08-21T12:37:31;5.07;;;0.60;;
78224;SDS011;67498;53.650;10.090;2023-08-21T12:39:56;2.28;;;0.50;;
78224;SDS011;67498;53.650;10.090;2023-08-21T12:42:22;2.37;;;0.50;;
78224;SDS011;67498;53.650;10.090;2023-08-21T12:44:47;3.23;;;0.60;;
78224;SDS011;67498;53.650;10.090;2023-08-21T12:47:12;2.63;;;0.50;;
78224;SDS011;67498;53.650;10.090;2023-08-21T12:49:37;2.47;;;0.67;;
78224;SDS011;67498;53.650;10.090;2023-08-21T12:52:03;2.47;;;0.50;;
78224;SDS011;67498;53.650;10.090;2023-08-21T12:54:30;2.20;;;0.50;;
78224;SDS011;67498;53.650;10.090;2023-08-21T12:56:56;2.37;;;0.60;;
78224;SDS011;67498;53.650;10.090;2023-08-21T12:59:21;3.22;;;0.50;;
78224;SDS011;67498;53.650;10.090;2023-08-21T13:01:47;2.00;;;0.40;;
78224;SDS011;67498;53.650;10.090;2023-08-21T13:04:12;3.53;;;0.50;;
78224;SDS011;67498;53.650;10.090;2023-08-21T13:06:37;2.93;;;0.50;;
78224;SDS011;67498;53.650;10.090;2023-08-21T13:09:03;2.53;;;0.50;;
78224;SDS011;67498;53.650;10.090;2023-08-21T13:11:28;2.70;;;0.50;;
78224;SDS011;67498;53.650;10.090;2023-08-21T13:13:54;2.17;;;0.50;;
78224;SDS011;67498;53.650;10.090;2023-08-21T13:16:20;2.73;;;0.50;;
78224;SDS011;67498;53.650;10.090;2023-08-21T13:18:45;2.50;;;0.60;;
78224;SDS011;67498;53.650;10.090;2023-08-21T13:21:10;2.80;;;0.60;;
78224;SDS011;67498;53.650;10.090;2023-08-21T13:23:35;2.50;;;0.67;;
78224;SDS011;67498;53.650;10.090;2023-08-21T13:26:01;2.40;;;0.60;;
78224;SDS011;67498;53.650;10.090;2023-08-21T13:28:26;3.35;;;0.63;;
78224;SDS011;67498;53.650;10.090;2023-08-21T13:30:52;2.00;;;0.40;;
78224;SDS011;67498;53.650;10.090;2023-08-21T13:33:18;1.83;;;0.40;;
78224;SDS011;67498;53.650;10.090;2023-08-21T13:35:43;3.17;;;0.70;;
78224;SDS011;67498;53.650;10.090;2023-08-21T13:38:10;2.17;;;0.52;;
78224;SDS011;67498;53.650;10.090;2023-08-21T13:40:35;4.23;;;0.60;;
78224;SDS011;67498;53.650;10.090;2023-08-21T13:43:00;2.27;;;0.50;;
78224;SDS011;67498;53.650;10.090;2023-08-21T13:45:26;2.20;;;0.40;;
78224;SDS011;67498;53.650;10.090;2023-08-21T13:47:51;2.30;;;0.50;;
78224;SDS011;67498;53.650;10.090;2023-08-21T13:50:17;2.60;;;0.70;;
78224;SDS011;67498;53.650;10.090;2023-08-21T13:52:45;2.70;;;0.70;;
78224;SDS011;67498;53.650;10.090;2023-08-21T13:55:12;2.80;;;0.50;;
78224;SDS011;67498;53.650;10.090;2023-08-21T13:57:38;2.47;;;0.50;;
78224;SDS011;67498;53.650;10.090;2023-08-21T14:00:04;2.87;;;0.60;;
78224;SDS011;67498;53.650;10.090;2023-08-21T14:02:36;2.30;;;0.63;;
78224;SDS011;67498;53.650;10.090;2023-08-21T14:05:01;2.47;;;0.50;;
78224;SDS011;67498;53.650;10.090;2023-08-21T14:07:29;3.17;;;0.63;;
78224;SDS011;67498;53.650;10.090;2023-08-21T14:09:54;2.60;;;0.60;;
78224;SDS011;67498;53.650;10.090;2023-08-21T14:12:20;2.67;;;0.70;;
78224;SDS011;67498;53.650;10.090;2023-08-21T14:14:45;4.20;;;0.50;;
78224;SDS011;67498;53.650;10.090;2023-08-21T14:17:10;2.53;;;0.60;;
78224;SDS011;67498;53.650;10.090;2023-08-21T14:19:35;2.63;;;0.77;;
78224;SDS011;67498;53.650;10.090;2023-08-21T14:22:01;2.77;;;0.60;;
78224;SDS011;67498;53.650;10.090;2023-08-21T14:24:26;4.07;;;0.60;;
78224;SDS011;67498;53.650;10.090;2023-08-21T14:26:51;3.83;;;0.60;;
78224;SDS011;67498;53.650;10.090;2023-08-21T14:29:17;2.10;;;0.50;;
78224;SDS011;67498;53.650;10.090;2023-08-21T14:31:42;2.83;;;0.70;;
78224;SDS011;67498;53.650;10.090;2023-08-21T14:34:07;2.17;;;0.50;;